Time;durP1;ratioP1;P1;durP2;ratioP2;P2;SDS_P1;SDS_P2;PMS_P1;PMS_P2;Temp;Humidity;BMP_temperature;BMP_pressure;BME280_temperature;BME280_humidity;BME280_pressure;Samples;Min_cycle;Max_cycle;Signal;HPM_P1;HPM_P2
2020/12/21 00:01:52;;;;;;;4.38;2.20;;;;;;;;;;5037485;28;20049;-79
2020/12/21 00:04:18;;;;;;;4.22;1.60;;;;;;;;;;5038269;28;20403;-80
2020/12/21 00:06:49;;;;;;;3.17;1.80;;;;;;;;;;5035074;28;20138;-78
2020/12/21 00:09:15;;;;;;;3.83;1.40;;;;;;;;;;5036648;28;20048;-79
2020/12/21 00:11:42;;;;;;;5.13;1.88;;;;;;;;;;5042827;28;20049;-78
2020/12/21 00:14:08;;;;;;;3.97;2.28;;;;;;;;;;5032914;28;20092;-78
2020/12/21 00:16:39;;;;;;;3.25;1.75;;;;;;;;;;5036615;28;20703;-77
2020/12/21 00:19:06;;;;;;;4.28;1.25;;;;;;;;;;5034542;28;20672;-82
2020/12/21 00:21:33;;;;;;;4.10;1.52;;;;;;;;;;5035711;28;20108;-81
2020/12/21 00:24:03;;;;;;;4.03;1.50;;;;;;;;;;5034233;28;20063;-82
2020/12/21 00:26:30;;;;;;;3.17;1.25;;;;;;;;;;5033873;28;20038;-80
2020/12/21 00:29:04;;;;;;;3.90;1.48;;;;;;;;;;5037168;28;20045;-80
2020/12/21 00:31:32;;;;;;;3.13;1.40;;;;;;;;;;5038537;28;20399;-84
2020/12/21 00:33:59;;;;;;;13.57;1.95;;;;;;;;;;5036348;28;20049;-85
2020/12/21 00:36:25;;;;;;;10.43;1.88;;;;;;;;;;5033432;28;20418;-86
2020/12/21 00:38:52;;;;;;;3.45;2.00;;;;;;;;;;5033471;28;20045;-85
2020/12/21 00:41:19;;;;;;;4.68;1.70;;;;;;;;;;5044015;28;20045;-86
2020/12/21 00:43:49;;;;;;;5.10;1.98;;;;;;;;;;5045224;28;20045;-84
2020/12/21 00:46:16;;;;;;;4.68;1.70;;;;;;;;;;5044611;28;20128;-88
2020/12/21 00:48:42;;;;;;;3.75;1.95;;;;;;;;;;5038651;28;20048;-86
2020/12/21 00:51:10;;;;;;;3.08;1.70;;;;;;;;;;5036236;28;20053;-88
2020/12/21 00:53:37;;;;;;;3.80;1.98;;;;;;;;;;5031834;28;20067;-83
2020/12/21 00:56:04;;;;;;;7.03;1.77;;;;;;;;;;5041012;28;20053;-81
2020/12/21 00:58:30;;;;;;;5.10;2.10;;;;;;;;;;5037927;28;20045;-81
2020/12/21 01:00:57;;;;;;;4.13;1.70;;;;;;;;;;5043706;28;20059;-80
2020/12/21 01:03:23;;;;;;;2.92;1.42;;;;;;;;;;5032094;28;20475;-81
2020/12/21 01:05:49;;;;;;;5.00;1.33;;;;;;;;;;5034802;28;20049;-81
2020/12/21 01:08:15;;;;;;;5.63;1.65;;;;;;;;;;5037296;28;20060;-81
2020/12/21 01:10:41;;;;;;;5.53;1.80;;;;;;;;;;5038888;28;20053;-81
2020/12/21 01:13:07;;;;;;;3.95;1.55;;;;;;;;;;5038910;28;20459;-81
2020/12/21 01:15:34;;;;;;;3.13;1.65;;;;;;;;;;5034542;28;20056;-81
2020/12/21 01:18:00;;;;;;;6.15;1.75;;;;;;;;;;5038122;28;20498;-82
2020/12/21 01:20:26;;;;;;;3.38;1.55;;;;;;;;;;5040293;28;20049;-83
2020/12/21 01:22:52;;;;;;;4.80;2.13;;;;;;;;;;5036471;28;20487;-83
2020/12/21 01:25:18;;;;;;;3.90;1.48;;;;;;;;;;5033889;28;20100;-83
2020/12/21 01:27:44;;;;;;;2.97;1.70;;;;;;;;;;5033554;28;20049;-87
2020/12/21 01:30:13;;;;;;;5.47;1.30;;;;;;;;;;5032715;28;20046;-87
2020/12/21 01:32:40;;;;;;;3.92;1.45;;;;;;;;;;5043090;28;20131;-92
2020/12/21 01:35:06;;;;;;;6.95;1.50;;;;;;;;;;5034668;28;20063;-92
2020/12/21 01:37:33;;;;;;;3.80;1.35;;;;;;;;;;5035539;28;20045;-94
2020/12/21 01:39:59;;;;;;;2.70;1.70;;;;;;;;;;5050067;28;20045;-95
2020/12/21 01:42:27;;;;;;;5.47;1.95;;;;;;;;;;5036157;28;20049;-85
2020/12/21 01:44:53;;;;;;;4.03;1.63;;;;;;;;;;5036262;28;20041;-85
2020/12/21 01:47:20;;;;;;;3.20;1.52;;;;;;;;;;5034830;28;20053;-87
2020/12/21 01:49:47;;;;;;;3.10;1.40;;;;;;;;;;5036593;28;20396;-86
2020/12/21 01:52:15;;;;;;;5.65;1.85;;;;;;;;;;5034791;28;20052;-85
2020/12/21 01:54:42;;;;;;;3.00;1.67;;;;;;;;;;5041224;28;20473;-83
2020/12/21 01:57:09;;;;;;;4.70;1.52;;;;;;;;;;5032823;28;20056;-83
2020/12/21 01:59:35;;;;;;;2.75;1.25;;;;;;;;;;5036794;28;20041;-85
2020/12/21 02:02:01;;;;;;;3.83;1.70;;;;;;;;;;5032665;28;20398;-86
2020/12/21 02:04:29;;;;;;;4.82;1.70;;;;;;;;;;5033403;28;20087;-86
2020/12/21 02:06:56;;;;;;;3.05;1.58;;;;;;;;;;5042557;28;20053;-86
2020/12/21 02:09:22;;;;;;;3.42;1.90;;;;;;;;;;5033906;28;20131;-86
2020/12/21 02:11:49;;;;;;;2.97;1.67;;;;;;;;;;5034637;28;20049;-85
2020/12/21 02:14:15;;;;;;;3.40;1.30;;;;;;;;;;5032602;28;20494;-91
2020/12/21 02:16:42;;;;;;;3.10;1.33;;;;;;;;;;5042049;28;20053;-89
2020/12/21 02:19:08;;;;;;;2.72;1.15;;;;;;;;;;5043189;28;20041;-88
2020/12/21 02:21:34;;;;;;;3.08;1.52;;;;;;;;;;5032279;28;20056;-89
2020/12/21 02:24:00;;;;;;;4.50;1.80;;;;;;;;;;5035162;28;20041;-85
2020/12/21 02:26:26;;;;;;;3.45;1.10;;;;;;;;;;5034423;28;20041;-86
2020/12/21 02:28:53;;;;;;;2.58;1.40;;;;;;;;;;5034591;28;20053;-86
2020/12/21 02:31:26;;;;;;;3.75;2.47;;;;;;;;;;5032429;28;20100;-87
2020/12/21 02:33:52;;;;;;;2.97;1.45;;;;;;;;;;5033218;28;20041;-86
2020/12/21 02:36:18;;;;;;;2.70;1.40;;;;;;;;;;5035201;28;20053;-76
2020/12/21 02:38:45;;;;;;;3.17;1.38;;;;;;;;;;5034039;28;20124;-76
2020/12/21 02:41:15;;;;;;;1.73;1.05;;;;;;;;;;5032102;28;20609;-76
2020/12/21 02:43:42;;;;;;;3.08;1.17;;;;;;;;;;5041495;28;20057;-77
2020/12/21 02:46:13;;;;;;;2.20;1.20;;;;;;;;;;5030734;28;20091;-77
2020/12/21 02:48:40;;;;;;;2.88;1.20;;;;;;;;;;5035215;28;20052;-74
2020/12/21 02:51:07;;;;;;;3.78;1.33;;;;;;;;;;5037121;28;20413;-77
2020/12/21 02:53:33;;;;;;;3.45;1.17;;;;;;;;;;5032153;28;20046;-76
2020/12/21 02:55:59;;;;;;;2.80;1.33;;;;;;;;;;5030398;28;20064;-76
2020/12/21 02:58:25;;;;;;;4.15;1.42;;;;;;;;;;5035784;28;20045;-76
2020/12/21 03:00:51;;;;;;;2.20;1.15;;;;;;;;;;5031577;28;20054;-76
2020/12/21 03:03:17;;;;;;;2.58;1.23;;;;;;;;;;5035789;28;20052;-77
2020/12/21 03:05:43;;;;;;;3.70;1.45;;;;;;;;;;5031758;28;20046;-76
2020/12/21 03:08:10;;;;;;;2.55;1.25;;;;;;;;;;5035147;28;20045;-77
2020/12/21 03:10:37;;;;;;;1.25;0.95;;;;;;;;;;5035496;28;20076;-77
2020/12/21 03:13:06;;;;;;;5.72;1.35;;;;;;;;;;5030841;28;20041;-76
2020/12/21 03:15:32;;;;;;;2.63;1.67;;;;;;;;;;5032172;28;20049;-77
2020/12/21 03:18:00;;;;;;;3.53;1.42;;;;;;;;;;5036214;28;20054;-77
2020/12/21 03:20:27;;;;;;;2.22;1.33;;;;;;;;;;5031091;28;20049;-77
2020/12/21 03:22:53;;;;;;;2.33;1.15;;;;;;;;;;5031741;28;20046;-78
2020/12/21 03:25:19;;;;;;;3.42;1.73;;;;;;;;;;5034430;28;20049;-78
2020/12/21 03:27:45;;;;;;;2.10;1.00;;;;;;;;;;5034681;28;20049;-78
2020/12/21 03:30:11;;;;;;;2.60;1.17;;;;;;;;;;5038163;28;20053;-78
2020/12/21 03:32:37;;;;;;;5.30;1.23;;;;;;;;;;5034841;28;20053;-77
2020/12/21 03:35:05;;;;;;;1.90;1.08;;;;;;;;;;5036844;28;20053;-78
2020/12/21 03:37:37;;;;;;;1.73;1.00;;;;;;;;;;5034221;28;20053;-77
2020/12/21 03:40:09;;;;;;;2.42;1.42;;;;;;;;;;5034069;28;20044;-77
2020/12/21 03:42:36;;;;;;;3.58;1.17;;;;;;;;;;5038523;28;20066;-76
2020/12/21 03:45:03;;;;;;;4.10;1.38;;;;;;;;;;5037752;28;20478;-76
2020/12/21 03:47:30;;;;;;;4.60;1.00;;;;;;;;;;5033062;28;20444;-77
2020/12/21 03:49:56;;;;;;;2.95;1.25;;;;;;;;;;5037826;28;20079;-77
2020/12/21 03:52:23;;;;;;;1.48;0.93;;;;;;;;;;5036710;28;20044;-78
2020/12/21 03:54:49;;;;;;;1.40;1.10;;;;;;;;;;5041535;28;20059;-78
2020/12/21 03:57:15;;;;;;;2.42;0.90;;;;;;;;;;5033885;28;20045;-77
2020/12/21 03:59:41;;;;;;;1.98;1.08;;;;;;;;;;5043044;28;20397;-77
2020/12/21 04:02:07;;;;;;;2.40;1.00;;;;;;;;;;5040103;28;20509;-80
2020/12/21 04:04:34;;;;;;;2.33;1.38;;;;;;;;;;5033802;28;20049;-79
2020/12/21 04:07:00;;;;;;;2.83;1.00;;;;;;;;;;5039311;28;20124;-78
2020/12/21 04:09:26;;;;;;;1.25;0.80;;;;;;;;;;5039040;28;20046;-78
2020/12/21 04:11:52;;;;;;;1.77;0.88;;;;;;;;;;5033407;28;20513;-78
2020/12/21 04:14:19;;;;;;;2.03;1.05;;;;;;;;;;5035147;28;20180;-79
2020/12/21 04:16:46;;;;;;;2.63;1.17;;;;;;;;;;5036815;28;20065;-79
2020/12/21 04:19:12;;;;;;;1.92;1.02;;;;;;;;;;5033441;28;20041;-77
2020/12/21 04:21:38;;;;;;;1.63;0.90;;;;;;;;;;5035476;28;20049;-76
2020/12/21 04:24:04;;;;;;;1.40;0.95;;;;;;;;;;5036713;28;20067;-75
2020/12/21 04:26:31;;;;;;;1.15;1.02;;;;;;;;;;5037852;28;20041;-76
2020/12/21 04:28:58;;;;;;;1.30;0.95;;;;;;;;;;5037322;28;20075;-76
2020/12/21 04:31:24;;;;;;;4.13;0.77;;;;;;;;;;5033424;28;20741;-75
2020/12/21 04:33:50;;;;;;;1.70;1.00;;;;;;;;;;5036545;28;20131;-75
2020/12/21 04:36:16;;;;;;;2.65;1.38;;;;;;;;;;5035940;28;20053;-76
2020/12/21 04:38:43;;;;;;;1.25;0.80;;;;;;;;;;5036113;28;20041;-76
2020/12/21 04:41:10;;;;;;;2.75;1.35;;;;;;;;;;5036802;28;20049;-77
2020/12/21 04:43:37;;;;;;;2.63;0.90;;;;;;;;;;5035146;28;20045;-77
2020/12/21 04:46:05;;;;;;;1.05;0.73;;;;;;;;;;5035776;28;20153;-76
2020/12/21 04:48:33;;;;;;;1.58;0.82;;;;;;;;;;5035195;28;20047;-78
2020/12/21 04:50:59;;;;;;;2.83;0.82;;;;;;;;;;5032960;28;20434;-77
2020/12/21 04:53:25;;;;;;;2.08;1.23;;;;;;;;;;5038508;28;20438;-77
2020/12/21 04:55:51;;;;;;;1.88;0.77;;;;;;;;;;5032654;28;20406;-77
2020/12/21 04:58:18;;;;;;;1.48;0.70;;;;;;;;;;5037654;28;20052;-77
2020/12/21 05:00:47;;;;;;;1.15;0.70;;;;;;;;;;5037030;28;20057;-77
2020/12/21 05:03:14;;;;;;;0.98;0.57;;;;;;;;;;5032715;28;20053;-77
2020/12/21 05:05:41;;;;;;;1.60;0.70;;;;;;;;;;5035544;28;20049;-78
2020/12/21 05:08:18;;;;;;;2.42;0.82;;;;;;;;;;5043055;28;20425;-78
2020/12/21 05:10:55;;;;;;;1.63;0.80;;;;;;;;;;5032189;28;20087;-78
2020/12/21 05:13:21;;;;;;;1.35;1.00;;;;;;;;;;5037200;28;20041;-77
2020/12/21 05:15:51;;;;;;;0.90;0.68;;;;;;;;;;5032211;28;20057;-77
2020/12/21 05:18:23;;;;;;;1.13;0.70;;;;;;;;;;5036903;28;20052;-80
2020/12/21 05:21:03;;;;;;;1.67;0.63;;;;;;;;;;5037735;28;20529;-79
2020/12/21 05:23:29;;;;;;;1.15;0.60;;;;;;;;;;5032017;28;20049;-79
2020/12/21 05:25:59;;;;;;;1.25;0.65;;;;;;;;;;5032237;28;20042;-79
2020/12/21 05:28:26;;;;;;;0.85;0.60;;;;;;;;;;5039039;28;20056;-80
2020/12/21 05:30:53;;;;;;;1.38;1.13;;;;;;;;;;5043522;28;20059;-80
2020/12/21 05:33:20;;;;;;;1.55;0.88;;;;;;;;;;5037482;28;20045;-80
2020/12/21 05:35:49;;;;;;;2.70;0.80;;;;;;;;;;5043658;28;20055;-78
2020/12/21 05:38:20;;;;;;;1.30;0.63;;;;;;;;;;5036269;28;20050;-79
2020/12/21 05:40:46;;;;;;;0.85;0.52;;;;;;;;;;5037016;28;20056;-78
2020/12/21 05:43:41;;;;;;;0.95;0.65;;;;;;;;;;5033495;28;20140;-80
2020/12/21 05:46:12;;;;;;;0.98;0.70;;;;;;;;;;5023276;28;20052;-78
2020/12/21 05:48:42;;;;;;;1.90;0.73;;;;;;;;;;5040280;28;20052;-78
2020/12/21 05:51:08;;;;;;;2.03;1.10;;;;;;;;;;5035674;28;20048;-78
2020/12/21 05:53:46;;;;;;;1.40;0.80;;;;;;;;;;5033776;28;20076;-77
2020/12/21 05:56:12;;;;;;;1.15;0.65;;;;;;;;;;5031792;28;20046;-78
2020/12/21 05:58:39;;;;;;;0.90;0.50;;;;;;;;;;5032975;28;20064;-79
2020/12/21 06:01:10;;;;;;;0.90;0.70;;;;;;;;;;5032411;28;20068;-80
2020/12/21 06:03:36;;;;;;;1.60;0.70;;;;;;;;;;5031798;28;20618;-79
2020/12/21 06:06:06;;;;;;;0.77;0.60;;;;;;;;;;5037070;28;20112;-79
2020/12/21 06:08:33;;;;;;;1.52;0.80;;;;;;;;;;5033898;28;20042;-78
2020/12/21 06:11:07;;;;;;;0.52;0.50;;;;;;;;;;5034845;28;20049;-78
2020/12/21 06:13:38;;;;;;;1.50;0.52;;;;;;;;;;5035923;28;20057;-78
2020/12/21 06:16:05;;;;;;;0.77;0.57;;;;;;;;;;5039282;28;20044;-77
2020/12/21 06:18:31;;;;;;;0.73;0.50;;;;;;;;;;5035428;28;20041;-79
2020/12/21 06:20:59;;;;;;;1.15;0.70;;;;;;;;;;5041964;28;20178;-77
2020/12/21 06:23:29;;;;;;;0.73;0.70;;;;;;;;;;5033322;28;20499;-79
2020/12/21 06:26:06;;;;;;;0.90;0.65;;;;;;;;;;5034204;28;20072;-77
2020/12/21 06:28:32;;;;;;;0.98;0.65;;;;;;;;;;5034093;28;20129;-76
2020/12/21 06:31:17;;;;;;;1.88;0.73;;;;;;;;;;5031071;28;20038;-76
2020/12/21 06:33:44;;;;;;;0.40;0.40;;;;;;;;;;5031562;28;20053;-78
2020/12/21 06:36:10;;;;;;;2.40;0.90;;;;;;;;;;5031224;28;20471;-77
2020/12/21 06:38:47;;;;;;;2.67;0.65;;;;;;;;;;5035425;28;20045;-76
2020/12/21 06:41:14;;;;;;;0.70;0.40;;;;;;;;;;5032662;28;20049;-77
2020/12/21 06:44:04;;;;;;;3.97;0.55;;;;;;;;;;5041783;28;20050;-77
2020/12/21 06:46:31;;;;;;;0.70;0.52;;;;;;;;;;5032442;28;20627;-78
2020/12/21 06:49:00;;;;;;;1.05;0.60;;;;;;;;;;5036669;28;20049;-77
2020/12/21 06:51:29;;;;;;;0.60;0.40;;;;;;;;;;5030305;28;20053;-78
2020/12/21 06:53:59;;;;;;;0.80;0.52;;;;;;;;;;5034752;28;20054;-78
2020/12/21 06:56:28;;;;;;;1.55;0.80;;;;;;;;;;5037370;28;20578;-78
2020/12/21 06:58:58;;;;;;;2.00;0.60;;;;;;;;;;5039511;28;20049;-77
2020/12/21 07:01:28;;;;;;;1.10;0.60;;;;;;;;;;5034952;28;20045;-77
2020/12/21 07:03:55;;;;;;;1.00;0.63;;;;;;;;;;5039767;28;20091;-76
2020/12/21 07:06:21;;;;;;;1.48;0.60;;;;;;;;;;5041266;28;20049;-77
2020/12/21 07:08:50;;;;;;;1.90;1.20;;;;;;;;;;5035761;28;20553;-78
2020/12/21 07:11:17;;;;;;;0.75;0.50;;;;;;;;;;5034528;28;20521;-76
2020/12/21 07:13:44;;;;;;;0.50;0.40;;;;;;;;;;5047676;28;20047;-76
2020/12/21 07:16:10;;;;;;;1.55;0.60;;;;;;;;;;5040128;28;20059;-77
2020/12/21 07:18:38;;;;;;;1.30;0.45;;;;;;;;;;5039263;28;20402;-75
2020/12/21 07:21:08;;;;;;;0.50;0.35;;;;;;;;;;5035334;28;20053;-76
2020/12/21 07:23:34;;;;;;;0.55;0.40;;;;;;;;;;5036358;28;20041;-75
2020/12/21 07:26:01;;;;;;;0.95;0.38;;;;;;;;;;5044682;28;20481;-77
2020/12/21 07:28:28;;;;;;;1.48;0.60;;;;;;;;;;5041148;28;20514;-77
2020/12/21 07:31:04;;;;;;;0.73;0.55;;;;;;;;;;5047950;28;20049;-76
2020/12/21 07:33:34;;;;;;;4.82;0.73;;;;;;;;;;5041709;28;20041;-75
2020/12/21 07:36:00;;;;;;;1.40;0.70;;;;;;;;;;5038028;28;20055;-75
2020/12/21 07:38:31;;;;;;;1.42;0.90;;;;;;;;;;5041463;28;20053;-80
2020/12/21 07:40:57;;;;;;;1.20;0.52;;;;;;;;;;5041401;28;20465;-75
2020/12/21 07:43:27;;;;;;;2.05;0.60;;;;;;;;;;5042587;28;20383;-73
2020/12/21 07:45:57;;;;;;;0.43;0.30;;;;;;;;;;5039162;28;20076;-74
2020/12/21 07:48:24;;;;;;;0.65;0.30;;;;;;;;;;5042332;28;20053;-78
2020/12/21 07:50:55;;;;;;;0.75;0.40;;;;;;;;;;5040023;28;20172;-73
2020/12/21 07:53:25;;;;;;;0.93;0.40;;;;;;;;;;5038076;28;20046;-77
2020/12/21 07:55:56;;;;;;;0.88;0.60;;;;;;;;;;5044038;28;20049;-74
2020/12/21 07:58:22;;;;;;;1.55;0.60;;;;;;;;;;5035049;28;20053;-71
2020/12/21 08:00:55;;;;;;;0.90;0.40;;;;;;;;;;5038890;28;20091;-74
2020/12/21 08:03:31;;;;;;;1.90;0.50;;;;;;;;;;5036901;28;20052;-74
2020/12/21 08:06:08;;;;;;;1.70;0.50;;;;;;;;;;5035513;28;20567;-73
2020/12/21 08:08:38;;;;;;;0.80;0.50;;;;;;;;;;5041180;28;20050;-74
2020/12/21 08:11:06;;;;;;;;;;;;;;;;;;5044473;28;20069;-75
2020/12/21 08:13:36;;;;;;;0.55;0.40;;;;;;;;;;5035566;28;19935;-73
2020/12/21 08:16:11;;;;;;;0.60;0.40;;;;;;;;;;5035400;28;20076;-71
2020/12/21 08:18:43;;;;;;;1.30;0.73;;;;;;;;;;5037433;28;20510;-74
2020/12/21 08:21:11;;;;;;;;;;;;;;;;;;5040139;28;20056;-73
2020/12/21 08:23:37;;;;;;;1.63;0.80;;;;;;;;;;5043634;28;19921;-74
2020/12/21 08:26:14;;;;;;;2.20;1.13;;;;;;;;;;5037215;28;20246;-76
2020/12/21 08:28:41;;;;;;;1.33;0.95;;;;;;;;;;5042621;28;20049;-90
2020/12/21 08:31:14;;;;;;;1.20;1.00;;;;;;;;;;5045903;28;20049;-75
2020/12/21 08:34:01;;;;;;;0.68;0.65;;;;;;;;;;5041024;28;20052;-76
2020/12/21 08:36:32;;;;;;;5.72;1.60;;;;;;;;;;5032340;28;20049;-76
2020/12/21 08:39:04;;;;;;;2.85;1.50;;;;;;;;;;5042758;28;20053;-76
2020/12/21 08:41:44;;;;;;;2.85;1.30;;;;;;;;;;5035835;28;20072;-75
2020/12/21 08:44:20;;;;;;;1.33;0.73;;;;;;;;;;5044004;28;20128;-75
2020/12/21 08:46:49;;;;;;;1.52;0.90;;;;;;;;;;5034908;28;20280;-76
2020/12/21 08:49:15;;;;;;;5.25;1.33;;;;;;;;;;5039861;28;20044;-75
2020/12/21 08:51:41;;;;;;;4.28;1.00;;;;;;;;;;5039729;28;20172;-75
2020/12/21 08:54:10;;;;;;;2.88;0.98;;;;;;;;;;5034412;28;20041;-75
2020/12/21 08:56:36;;;;;;;1.70;1.05;;;;;;;;;;5035020;28;20061;-78
2020/12/21 08:59:04;;;;;;;3.78;1.40;;;;;;;;;;5038044;28;20072;-76
2020/12/21 09:01:30;;;;;;;2.50;1.45;;;;;;;;;;5042648;28;20055;-76
2020/12/21 09:03:57;;;;;;;5.35;1.73;;;;;;;;;;5035416;28;20135;-75
2020/12/21 09:06:25;;;;;;;1.75;1.13;;;;;;;;;;5034364;28;20053;-74
2020/12/21 09:08:55;;;;;;;3.00;1.30;;;;;;;;;;5037006;28;20060;-75
2020/12/21 09:11:21;;;;;;;2.13;1.05;;;;;;;;;;5040330;28;20059;-74
2020/12/21 09:13:49;;;;;;;1.80;1.10;;;;;;;;;;5040637;28;20049;-74
2020/12/21 09:16:20;;;;;;;1.05;0.60;;;;;;;;;;5035692;28;20049;-75
2020/12/21 09:18:50;;;;;;;1.08;0.80;;;;;;;;;;5035781;28;20053;-75
2020/12/21 09:21:17;;;;;;;1.57;1.10;;;;;;;;;;5038832;28;20049;-77
2020/12/21 09:23:45;;;;;;;1.38;0.90;;;;;;;;;;5033686;28;20289;-73
2020/12/21 09:26:11;;;;;;;1.50;0.90;;;;;;;;;;5035621;28;20070;-72
2020/12/21 09:28:37;;;;;;;1.90;0.88;;;;;;;;;;5040964;28;20049;-72
2020/12/21 09:31:04;;;;;;;2.20;1.05;;;;;;;;;;5034983;28;20053;-73
2020/12/21 09:33:30;;;;;;;4.50;1.52;;;;;;;;;;5040803;28;20045;-72
2020/12/21 09:35:56;;;;;;;1.75;1.08;;;;;;;;;;5037257;28;20041;-73
2020/12/21 09:38:25;;;;;;;1.20;0.73;;;;;;;;;;5037339;28;20045;-74
2020/12/21 09:40:51;;;;;;;4.15;1.25;;;;;;;;;;5037226;28;20053;-72
2020/12/21 09:43:17;;;;;;;3.45;1.20;;;;;;;;;;5042603;28;20048;-74
2020/12/21 09:45:47;;;;;;;1.90;1.38;;;;;;;;;;5036731;28;20171;-72
2020/12/21 09:48:13;;;;;;;1.50;1.15;;;;;;;;;;5038021;28;20407;-76
2020/12/21 09:50:41;;;;;;;1.92;1.00;;;;;;;;;;5035083;28;20052;-75
2020/12/21 09:53:07;;;;;;;2.45;1.40;;;;;;;;;;5035889;28;20944;-76
2020/12/21 09:55:33;;;;;;;2.00;1.17;;;;;;;;;;5033961;28;20052;-76
2020/12/21 09:57:59;;;;;;;2.13;1.10;;;;;;;;;;5030959;28;20050;-75
2020/12/21 10:00:28;;;;;;;1.80;1.10;;;;;;;;;;5034760;28;20095;-76
2020/12/21 10:02:54;;;;;;;3.53;1.42;;;;;;;;;;5032865;28;20049;-75
2020/12/21 10:05:20;;;;;;;2.10;1.33;;;;;;;;;;5038354;28;20399;-75
2020/12/21 10:07:46;;;;;;;3.78;1.02;;;;;;;;;;5037354;28;20471;-77
2020/12/21 10:10:14;;;;;;;2.53;1.33;;;;;;;;;;5034731;28;20139;-75
2020/12/21 10:12:41;;;;;;;1.13;0.80;;;;;;;;;;5036524;28;20041;-75
2020/12/21 10:15:13;;;;;;;1.42;0.90;;;;;;;;;;5042098;28;20056;-75
2020/12/21 10:17:41;;;;;;;2.92;1.13;;;;;;;;;;5038621;28;20045;-74
2020/12/21 10:20:07;;;;;;;1.50;0.70;;;;;;;;;;5036365;28;20045;-74
2020/12/21 10:22:35;;;;;;;0.85;0.68;;;;;;;;;;5036909;28;20493;-75
2020/12/21 10:25:01;;;;;;;1.15;0.90;;;;;;;;;;5035069;28;20046;-74
2020/12/21 10:27:29;;;;;;;1.40;0.80;;;;;;;;;;5032339;28;20540;-75
2020/12/21 10:29:55;;;;;;;0.70;0.60;;;;;;;;;;5035867;28;20392;-77
2020/12/21 10:32:21;;;;;;;1.08;0.60;;;;;;;;;;5039161;28;20049;-74
2020/12/21 10:34:51;;;;;;;1.88;1.02;;;;;;;;;;5038406;28;20083;-75
2020/12/21 10:37:17;;;;;;;2.88;1.20;;;;;;;;;;5040544;28;20422;-77
2020/12/21 10:39:49;;;;;;;1.63;1.10;;;;;;;;;;5036861;28;20435;-78
2020/12/21 10:42:16;;;;;;;2.80;0.80;;;;;;;;;;5044411;28;20049;-76
2020/12/21 10:44:42;;;;;;;1.02;0.80;;;;;;;;;;5043220;28;20407;-74
2020/12/21 10:47:08;;;;;;;1.67;0.90;;;;;;;;;;5038019;28;20053;-76
2020/12/21 10:49:36;;;;;;;0.93;0.70;;;;;;;;;;5043871;28;20533;-76
2020/12/21 10:52:11;;;;;;;2.30;0.90;;;;;;;;;;5040032;28;20143;-75
2020/12/21 10:54:37;;;;;;;16.85;1.42;;;;;;;;;;5044962;28;20158;-76
2020/12/21 10:57:06;;;;;;;3.05;1.73;;;;;;;;;;5039985;28;20175;-74
2020/12/21 10:59:32;;;;;;;3.33;1.25;;;;;;;;;;5043243;28;20040;-75
2020/12/21 11:01:58;;;;;;;2.00;1.20;;;;;;;;;;5037252;28;20124;-76
2020/12/21 11:04:29;;;;;;;2.55;1.38;;;;;;;;;;5044957;28;20490;-74
2020/12/21 11:06:55;;;;;;;4.95;1.83;;;;;;;;;;5036121;28;20049;-75
2020/12/21 11:09:22;;;;;;;3.35;1.30;;;;;;;;;;5033737;28;20041;-75
2020/12/21 11:11:48;;;;;;;3.50;1.25;;;;;;;;;;5038349;28;20414;-76
2020/12/21 11:14:16;;;;;;;3.22;1.38;;;;;;;;;;5038823;28;20045;-76
2020/12/21 11:16:48;;;;;;;3.55;1.30;;;;;;;;;;5033725;28;20072;-75
2020/12/21 11:19:14;;;;;;;2.03;1.08;;;;;;;;;;5034655;28;20052;-76
2020/12/21 11:21:42;;;;;;;4.28;0.98;;;;;;;;;;5034471;28;20050;-75
2020/12/21 11:24:11;;;;;;;3.85;1.40;;;;;;;;;;5034271;28;20045;-76
2020/12/21 11:26:37;;;;;;;6.75;1.05;;;;;;;;;;5034497;28;20061;-76
2020/12/21 11:29:05;;;;;;;1.60;0.93;;;;;;;;;;5034803;28;21796;-75
2020/12/21 11:31:36;;;;;;;2.35;1.00;;;;;;;;;;5039862;28;20521;-76
2020/12/21 11:34:04;;;;;;;3.28;1.40;;;;;;;;;;5037532;28;20056;-75
2020/12/21 11:36:30;;;;;;;2.13;1.15;;;;;;;;;;5034695;28;20056;-76
2020/12/21 11:38:56;;;;;;;2.25;1.42;;;;;;;;;;5034122;28;20042;-76
2020/12/21 11:41:29;;;;;;;3.35;1.20;;;;;;;;;;5033972;28;20045;-75
2020/12/21 11:43:55;;;;;;;1.98;0.90;;;;;;;;;;5039253;28;20506;-75
2020/12/21 11:46:28;;;;;;;2.13;1.00;;;;;;;;;;5035036;28;20141;-75
2020/12/21 11:48:54;;;;;;;1.30;0.90;;;;;;;;;;5039294;28;20054;-76
2020/12/21 11:51:20;;;;;;;3.17;1.02;;;;;;;;;;5033958;28;20046;-76
2020/12/21 11:53:48;;;;;;;1.88;0.95;;;;;;;;;;5040419;28;20156;-76
2020/12/21 11:56:18;;;;;;;4.75;1.33;;;;;;;;;;5033910;28;20052;-76
2020/12/21 11:58:44;;;;;;;1.73;1.10;;;;;;;;;;5033347;28;20044;-75
2020/12/21 12:01:12;;;;;;;1.48;0.80;;;;;;;;;;5033381;28;20402;-76
2020/12/21 12:03:38;;;;;;;1.48;0.88;;;;;;;;;;5039680;28;20058;-76
2020/12/21 12:06:04;;;;;;;1.63;0.90;;;;;;;;;;5039828;28;20046;-75
2020/12/21 12:08:30;;;;;;;3.05;0.93;;;;;;;;;;5033652;28;20052;-76
2020/12/21 12:10:56;;;;;;;2.33;1.08;;;;;;;;;;5033486;28;20041;-75
2020/12/21 12:13:22;;;;;;;1.75;1.13;;;;;;;;;;5033394;28;20406;-75
2020/12/21 12:15:51;;;;;;;1.00;0.70;;;;;;;;;;5032826;28;20099;-76
2020/12/21 12:18:17;;;;;;;1.60;0.82;;;;;;;;;;5033915;28;20539;-76
2020/12/21 12:20:44;;;;;;;1.50;0.68;;;;;;;;;;5037613;28;20124;-76
2020/12/21 12:23:12;;;;;;;1.73;1.15;;;;;;;;;;5037659;28;20059;-76
2020/12/21 12:25:38;;;;;;;1.23;0.80;;;;;;;;;;5033575;28;20140;-76
2020/12/21 12:28:07;;;;;;;1.73;0.80;;;;;;;;;;5032964;28;20513;-76
2020/12/21 12:30:33;;;;;;;1.38;1.00;;;;;;;;;;5032547;28;20049;-75
2020/12/21 12:32:59;;;;;;;1.10;0.80;;;;;;;;;;5036663;28;20049;-76
2020/12/21 12:35:25;;;;;;;1.63;1.00;;;;;;;;;;5034999;28;20049;-75
2020/12/21 12:37:51;;;;;;;2.40;0.90;;;;;;;;;;5036716;28;20049;-76
2020/12/21 12:40:17;;;;;;;1.48;0.80;;;;;;;;;;5033639;28;20045;-76
2020/12/21 12:42:44;;;;;;;1.77;0.90;;;;;;;;;;5038054;28;20061;-75
2020/12/21 12:45:10;;;;;;;1.00;0.70;;;;;;;;;;5034702;28;20045;-76
2020/12/21 12:47:37;;;;;;;1.25;0.93;;;;;;;;;;5032762;28;20068;-75
2020/12/21 12:50:03;;;;;;;1.50;0.90;;;;;;;;;;5032431;28;20042;-75
2020/12/21 12:52:29;;;;;;;0.93;0.70;;;;;;;;;;5034941;28;20080;-76
2020/12/21 12:54:55;;;;;;;1.85;0.90;;;;;;;;;;5038022;28;20041;-76
2020/12/21 12:57:21;;;;;;;1.15;0.90;;;;;;;;;;5035825;28;20053;-76
2020/12/21 12:59:47;;;;;;;0.90;0.75;;;;;;;;;;5033732;28;20052;-76
2020/12/21 13:02:30;;;;;;;1.25;0.80;;;;;;;;;;5037719;28;20132;-75
2020/12/21 13:04:56;;;;;;;5.30;1.10;;;;;;;;;;5030787;28;20495;-75
2020/12/21 13:07:23;;;;;;;1.27;0.93;;;;;;;;;;5033330;28;20060;-75
2020/12/21 13:09:50;;;;;;;1.58;0.82;;;;;;;;;;5034148;28;20056;-76
2020/12/21 13:12:17;;;;;;;1.35;0.88;;;;;;;;;;5041135;28;20511;-76
2020/12/21 13:14:46;;;;;;;1.73;1.00;;;;;;;;;;5040311;28;20103;-77
2020/12/21 13:17:12;;;;;;;1.20;0.82;;;;;;;;;;5032134;28;20048;-75
2020/12/21 13:19:39;;;;;;;1.75;0.90;;;;;;;;;;5032231;28;20083;-75
2020/12/21 13:22:05;;;;;;;0.82;0.80;;;;;;;;;;5032097;28;20049;-76
2020/12/21 13:24:31;;;;;;;4.13;1.15;;;;;;;;;;5032419;28;20116;-76
2020/12/21 13:26:57;;;;;;;1.85;1.10;;;;;;;;;;5031129;28;20632;-74
2020/12/21 13:29:23;;;;;;;2.10;1.08;;;;;;;;;;5041294;28;20041;-75
2020/12/21 13:31:49;;;;;;;2.78;1.23;;;;;;;;;;5038124;28;20052;-75
2020/12/21 13:34:15;;;;;;;2.35;1.10;;;;;;;;;;5037341;28;20538;-75
2020/12/21 13:36:42;;;;;;;10.38;1.50;;;;;;;;;;5037466;28;20049;-75
2020/12/21 13:39:08;;;;;;;2.38;1.08;;;;;;;;;;5038825;28;20049;-76
2020/12/21 13:41:54;;;;;;;3.92;1.08;;;;;;;;;;5039803;28;20510;-75
2020/12/21 13:44:23;;;;;;;2.00;1.52;;;;;;;;;;5035632;28;20037;-75
2020/12/21 13:46:50;;;;;;;3.30;2.00;;;;;;;;;;5033353;28;20059;-75
2020/12/21 13:49:16;;;;;;;2.47;1.40;;;;;;;;;;5039482;28;20041;-75
2020/12/21 13:51:42;;;;;;;4.40;1.77;;;;;;;;;;5037375;28;20472;-75
2020/12/21 13:54:08;;;;;;;3.30;2.05;;;;;;;;;;5041856;28;20044;-75
2020/12/21 13:56:35;;;;;;;3.53;1.90;;;;;;;;;;5034174;28;20092;-75
2020/12/21 13:59:01;;;;;;;4.68;1.70;;;;;;;;;;5035166;28;20135;-75
2020/12/21 14:01:27;;;;;;;3.25;1.70;;;;;;;;;;5039593;28;20037;-75
2020/12/21 14:03:53;;;;;;;4.85;2.63;;;;;;;;;;5039261;28;20590;-75
2020/12/21 14:06:19;;;;;;;3.90;2.75;;;;;;;;;;5041460;28;20516;-75
2020/12/21 14:08:46;;;;;;;3.92;2.95;;;;;;;;;;5033210;28;20051;-75
2020/12/21 14:11:12;;;;;;;4.32;3.03;;;;;;;;;;5038823;28;20049;-75
2020/12/21 14:13:39;;;;;;;4.60;2.78;;;;;;;;;;5039282;28;20049;-75
2020/12/21 14:16:15;;;;;;;4.55;2.97;;;;;;;;;;5038854;28;20411;-75
2020/12/21 14:18:44;;;;;;;5.57;3.22;;;;;;;;;;5034743;28;20497;-75
2020/12/21 14:21:11;;;;;;;6.00;2.90;;;;;;;;;;5035138;28;20045;-76
2020/12/21 14:23:37;;;;;;;4.22;2.45;;;;;;;;;;5032914;28;20052;-76
2020/12/21 14:26:04;;;;;;;3.63;2.67;;;;;;;;;;5039196;28;20048;-75
2020/12/21 14:28:30;;;;;;;3.97;2.95;;;;;;;;;;5040064;28;20049;-74
2020/12/21 14:30:57;;;;;;;6.10;2.38;;;;;;;;;;5034986;28;20478;-72
2020/12/21 14:33:23;;;;;;;7.90;3.10;;;;;;;;;;5038954;28;20053;-73
2020/12/21 14:35:49;;;;;;;4.30;2.88;;;;;;;;;;5039052;28;20045;-72
2020/12/21 14:38:15;;;;;;;3.22;2.50;;;;;;;;;;5035436;28;20466;-72
2020/12/21 14:40:43;;;;;;;4.85;2.53;;;;;;;;;;5036786;28;20811;-73
2020/12/21 14:43:09;;;;;;;16.63;3.35;;;;;;;;;;5034677;28;20522;-75
2020/12/21 14:45:35;;;;;;;7.95;2.50;;;;;;;;;;5032739;28;20401;-75
2020/12/21 14:48:03;;;;;;;3.75;2.33;;;;;;;;;;5039278;28;20041;-77